San Roberto — WDI9265 — position and weather

sailwx.info

Track history (hours):
 
Tides and Currents Weather Stations Pressure Air Temp Water Temp Dewpoint Dewpoint Depression Visibility Wind Speed Wind Dir Waves Ship Positions

San Roberto

Owner: Buffalo Marine Service, Inc., Houston, TX. More information available from US FCC via Universal Licensing System and Coast Guard Vessel Documentation Center.

Last reported at 2018-May-22 17:58 UTC. Time now 2018-May-22 18:01 UTC.
Position N 29°23' W 094°52'.

Length 29 m.

Type: Towing. MMSI: 367746950.

Date/timePositionNaut miles runAvg speedWind from/ knotsBaromVisibWave heightAir tempDewpointWater temp
2018-May-22 17:58N 29°23' W 094°52'0 0.0
2018-May-22 17:29N 29°23' W 094°52'0 0.0
2018-May-22 16:59N 29°23' W 094°52'0 0.0
2018-May-22 16:29N 29°23' W 094°52'0 0.0
2018-May-22 15:59N 29°23' W 094°52'1 2.4
2018-May-22 15:30N 29°22' W 094°53'0 0.4
2018-May-22 15:01N 29°22' W 094°54'0 0.0
2018-May-22 14:31N 29°22' W 094°54'0 0.0
2018-May-22 14:01N 29°22' W 094°54'0 0.0
2018-May-22 13:31N 29°22' W 094°54'0 0.0
2018-May-22 13:01N 29°22' W 094°54'0 0.0
2018-May-22 12:30N 29°22' W 094°54'0 0.0
2018-May-22 12:01N 29°22' W 094°54'0 0.0
2018-May-22 11:30N 29°22' W 094°54'0 0.0
2018-May-22 11:01N 29°22' W 094°54'0 0.0
2018-May-22 10:31N 29°22' W 094°54'0 0.0
2018-May-22 10:00N 29°22' W 094°54'0 0.0
2018-May-22 09:31N 29°22' W 094°54'0 0.0
2018-May-22 09:01N 29°22' W 094°54'0 0.0
2018-May-22 08:31N 29°22' W 094°54'0 0.0
2018-May-22 08:00N 29°22' W 094°54'0 0.0
2018-May-22 07:31N 29°22' W 094°54'0 0.0
2018-May-22 07:01N 29°22' W 094°54'0 0.0
2018-May-22 06:31N 29°22' W 094°54'0 0.0
2018-May-22 06:01N 29°22' W 094°54'0 0.0
2018-May-22 05:30N 29°22' W 094°54'0 0.0
2018-May-22 05:01N 29°22' W 094°54'0 0.1
2018-May-22 04:30N 29°22' W 094°54'0 0.0
2018-May-22 04:00N 29°22' W 094°54'0 0.0
2018-May-22 03:14N 29°22' W 094°54'0 0.0
2018-May-21 22:30N 29°22' W 094°54'0 0.0
2018-May-21 22:00N 29°22' W 094°54'0 0.0
2018-May-21 21:31N 29°22' W 094°54'0 0.0
2018-May-21 21:01N 29°22' W 094°54'1 2.0
2018-May-21 20:31N 29°23' W 094°53'1 1.7
2018-May-21 20:00N 29°23' W 094°52'0 0.3
2018-May-21 19:31N 29°23' W 094°52'3 6.1
2018-May-21 19:01N 29°22' W 094°49'3 6.1
2018-May-21 18:31N 29°19' W 094°47'2 3.2
2018-May-21 18:00N 29°19' W 094°49'0 0.0
2018-May-21 17:31N 29°19' W 094°49'0 0.0
2018-May-21 17:01N 29°19' W 094°49'0 0.4
2018-May-21 16:30N 29°19' W 094°49'3 5.1
2018-May-21 16:00N 29°21' W 094°47'3 6.5
2018-May-21 15:31N 29°22' W 094°51'1 2.7
2018-May-21 14:59N 29°23' W 094°52'0 0.0
2018-May-21 14:28N 29°23' W 094°52'0 0.0
2018-May-21 13:14N 29°23' W 094°52'0 0.0
2018-May-21 12:58N 29°23' W 094°52'0 0.0
2018-May-21 12:21N 29°23' W 094°52'0 0.0
2018-May-21 11:59N 29°23' W 094°52'0 0.0
2018-May-21 11:28N 29°23' W 094°52'0 0.0
2018-May-21 11:01N 29°23' W 094°52'0 0.0
2018-May-21 10:30N 29°23' W 094°52'0 0.0
2018-May-21 09:59N 29°23' W 094°52'0 0.0
2018-May-21 09:27N 29°23' W 094°52'0 0.4
2018-May-21 09:01N 29°23' W 094°52'3 6.6
2018-May-21 08:31N 29°22' W 094°48'5 8.7
2018-May-21 07:57N 29°26' W 094°50'4 8.7
2018-May-21 07:30N 29°30' W 094°52'4 8.4
2018-May-21 07:01N 29°33' W 094°55'4 8.3
2018-May-21 06:31N 29°37' W 094°57'4 8.6
2018-May-21 06:01N 29°41' W 094°59'4 7.5
2018-May-21 05:30N 29°44' W 095°02'4 6.5
2018-May-21 04:56N 29°45' W 095°06'1 1.6
2018-May-21 04:30N 29°45' W 095°06'0 0.1
2018-May-21 03:55N 29°45' W 095°06'0 0.0
2018-May-21 03:24N 29°45' W 095°06'0 0.0
2018-May-21 03:00N 29°45' W 095°06'0 0.0
2018-May-21 01:57N 29°45' W 095°06'0 0.0
2018-May-21 00:43N 29°45' W 095°06'0 0.0
2018-May-20 20:28N 29°45' W 095°06'0 0.0
2018-May-20 06:17N 29°45' W 095°06'1 2.3
2018-May-20 05:59N 29°45' W 095°06'2 2.8
2018-May-20 05:24N 29°45' W 095°04'2 5.1
2018-May-20 04:57N 29°44' W 095°02'2 5.0
2018-May-20 04:30N 29°42' W 094°60'3 5.2
2018-May-20 04:01N 29°40' W 094°58'3 5.2
2018-May-20 03:30N 29°37' W 094°57'3 5.5
2018-May-20 03:01N 29°35' W 094°56'3 5.8
2018-May-20 02:31N 29°32' W 094°54'3 5.6
2018-May-20 02:00N 29°30' W 094°52'3 5.7
2018-May-20 01:29N 29°27' W 094°51'3 5.4
2018-May-20 00:57N 29°25' W 094°49'2 5.4
2018-May-20 00:30N 29°23' W 094°48'2 3.5
2018-May-19 23:58N 29°22' W 094°51'1 2.9
2018-May-19 23:31N 29°23' W 094°52'2 2.7
2018-May-19 22:53N 29°22' W 094°50'3 7.3
2018-May-19 22:29N 29°21' W 094°47'2 0.6
2018-May-19 18:57N 29°19' W 094°47'0 0.0
2018-May-19 18:26N 29°19' W 094°47'0 0.0
2018-May-19 17:37N 29°19' W 094°47'0 0.0
2018-May-19 17:30N 29°19' W 094°47'0 0.0
2018-May-19 17:00N 29°19' W 094°47'0 0.0
2018-May-19 16:29N 29°19' W 094°47'0 0.0
2018-May-19 15:59N 29°19' W 094°47'0 0.0
2018-May-19 15:30N 29°19' W 094°47'0 0.0
2018-May-19 15:00N 29°19' W 094°47'0 0.0
2018-May-19 14:29N 29°19' W 094°47'0 0.0
2018-May-19 13:58N 29°19' W 094°47'0 0.0
2018-May-19 13:29N 29°19' W 094°47'0 0.0
2018-May-19 12:58N 29°19' W 094°47'2 4.5
2018-May-19 12:29N 29°21' W 094°47'4 8.2
2018-May-19 12:01N 29°23' W 094°51'2 3.3
2018-May-19 11:31N 29°22' W 094°53'1 2.1
2018-May-19 11:00N 29°23' W 094°52'0 0.0
2018-May-19 10:30N 29°23' W 094°52'0 0.0
2018-May-19 10:01N 29°23' W 094°52'0 0.0
2018-May-19 09:29N 29°23' W 094°52'0 0.0
2018-May-19 09:00N 29°23' W 094°52'0 0.0
2018-May-19 08:30N 29°23' W 094°52'0 0.0
2018-May-19 08:01N 29°23' W 094°52'0 0.0
2018-May-19 07:31N 29°23' W 094°52'0 0.0
2018-May-19 07:00N 29°23' W 094°52'0 0.0
2018-May-19 06:31N 29°23' W 094°52'0 0.0
2018-May-19 06:01N 29°23' W 094°52'0 0.0
2018-May-19 05:30N 29°23' W 094°52'0 0.0
2018-May-19 05:01N 29°23' W 094°52'0 0.0
2018-May-19 04:30N 29°23' W 094°52'0 0.0
2018-May-19 03:59N 29°23' W 094°52'0 0.0
2018-May-19 03:28N 29°23' W 094°52'0 0.0
2018-May-19 03:00N 29°23' W 094°52'0 0.0
2018-May-19 02:30N 29°23' W 094°52'0 0.0
2018-May-19 02:00N 29°23' W 094°52'0 0.0
2018-May-19 01:30N 29°23' W 094°52'0 0.0
2018-May-19 01:01N 29°23' W 094°52'0 0.0
2018-May-19 00:31N 29°23' W 094°52'0 0.0
2018-May-18 23:59N 29°23' W 094°52'0 0.0
2018-May-18 23:30N 29°23' W 094°52'0 0.0
2018-May-18 23:00N 29°23' W 094°52'0 0.0
2018-May-18 22:30N 29°23' W 094°52'0 0.0
2018-May-18 22:00N 29°23' W 094°52'0 0.0
2018-May-18 21:30N 29°23' W 094°52'0 0.0
2018-May-18 21:01N 29°23' W 094°52'0 0.0
2018-May-18 20:31N 29°23' W 094°52'0 0.0
2018-May-18 20:01N 29°23' W 094°52'0 0.0
2018-May-18 19:30N 29°23' W 094°52'0 0.0
2018-May-18 19:01N 29°23' W 094°52'0 0.0
2018-May-18 18:30N 29°23' W 094°52'0 0.0
2018-May-18 18:01N 29°23' W 094°52'0 0.0
2018-May-18 17:31N 29°23' W 094°52'0 0.0
2018-May-18 17:00N 29°23' W 094°52'0 0.0
2018-May-18 16:31N 29°23' W 094°52'0 0.0
2018-May-18 16:00N 29°23' W 094°52'0 0.0
2018-May-18 15:31N 29°23' W 094°52'0 0.0
2018-May-18 14:59N 29°23' W 094°52'0 0.0
2018-May-18 14:30N 29°23' W 094°52'0 0.0
2018-May-18 13:33N 29°23' W 094°52'0 0.0
2018-May-18 13:29N 29°23' W 094°52'0 0.0
2018-May-18 12:54N 29°23' W 094°52'0 0.0
2018-May-18 12:30N 29°23' W 094°52'0 0.0
2018-May-18 12:00N 29°23' W 094°52'0 0.0
2018-May-18 11:30N 29°23' W 094°52'0 0.0
2018-May-18 11:01N 29°23' W 094°52'0 0.0
2018-May-18 10:30N 29°23' W 094°52'0 0.0
2018-May-18 10:01N 29°23' W 094°52'1 2.8
2018-May-18 09:30N 29°22' W 094°53'1 2.8
2018-May-18 09:00N 29°23' W 094°52'0 0.1
2018-May-18 08:31N 29°23' W 094°52'0 0.0
2018-May-18 08:01N 29°23' W 094°52'0 0.0
2018-May-18 07:31N 29°23' W 094°52'1 2.8
2018-May-18 07:00N 29°22' W 094°54'0 0.0
2018-May-18 06:31N 29°22' W 094°54'0 0.0
2018-May-18 06:01N 29°22' W 094°54'0 0.0
2018-May-18 05:31N 29°22' W 094°54'0 0.0
2018-May-18 05:01N 29°22' W 094°54'0 0.0
2018-May-18 04:30N 29°22' W 094°54'0 0.0
2018-May-18 04:01N 29°22' W 094°54'0 0.0
2018-May-18 03:30N 29°22' W 094°54'0 0.0
2018-May-18 03:00N 29°22' W 094°54'0 0.0
2018-May-18 02:31N 29°22' W 094°54'0 0.0
2018-May-18 02:00N 29°22' W 094°54'0 0.0
2018-May-18 01:30N 29°22' W 094°54'0 0.0
2018-May-18 01:00N 29°22' W 094°54'0 0.0
2018-May-18 00:31N 29°22' W 094°54'0 0.0
2018-May-18 00:01N 29°22' W 094°54'0 0.0
2018-May-17 23:30N 29°22' W 094°54'0 0.0
2018-May-17 23:01N 29°22' W 094°54'0 0.0
2018-May-17 22:30N 29°22' W 094°54'0 0.0
2018-May-17 22:00N 29°22' W 094°54'0 0.0
2018-May-17 21:29N 29°22' W 094°54'0 0.0
2018-May-17 21:00N 29°22' W 094°54'1 2.9
2018-May-17 20:30N 29°23' W 094°52'0 0.0
2018-May-17 19:59N 29°23' W 094°52'0 0.0
2018-May-17 19:27N 29°23' W 094°52'0 0.0
2018-May-17 19:00N 29°23' W 094°52'0 0.0
2018-May-17 18:30N 29°23' W 094°52'0 0.0
2018-May-17 18:00N 29°23' W 094°52'0 0.0
2018-May-17 17:31N 29°23' W 094°52'1 2.8
2018-May-17 17:00N 29°22' W 094°53'1 2.8
2018-May-17 16:30N 29°23' W 094°52'0 0.0
2018-May-17 16:00N 29°23' W 094°52'0 0.0
2018-May-17 15:30N 29°23' W 094°52'1 2.7
2018-May-17 15:00N 29°22' W 094°53'1 2.7
2018-May-17 14:30N 29°23' W 094°52'0 0.0
2018-May-17 14:00N 29°23' W 094°52'0 0.0
2018-May-17 13:31N 29°23' W 094°52'0 0.0
2018-May-17 13:00N 29°23' W 094°52'0 0.0
2018-May-17 12:30N 29°23' W 094°52'0 0.0
2018-May-17 12:00N 29°23' W 094°52'0 0.0
2018-May-17 11:29N 29°23' W 094°52'0 0.0
2018-May-17 11:00N 29°23' W 094°52'0 0.0
2018-May-17 10:30N 29°23' W 094°52'0 0.0
2018-May-17 10:00N 29°23' W 094°52'0 0.0
2018-May-17 09:31N 29°23' W 094°52'0 0.0
2018-May-17 09:00N 29°23' W 094°52'0 0.0
2018-May-17 08:29N 29°23' W 094°52'0 0.0
2018-May-17 08:00N 29°23' W 094°52'0 0.0
2018-May-17 07:30N 29°23' W 094°52'0 0.0
2018-May-17 07:00N 29°23' W 094°52'0 0.0
2018-May-17 06:30N 29°23' W 094°52'0 0.0
2018-May-17 06:00N 29°23' W 094°52'0 0.0
2018-May-17 05:31N 29°23' W 094°52'0 0.0
2018-May-17 05:01N 29°23' W 094°52'0 0.0
2018-May-17 04:30N 29°23' W 094°52'0 0.0
2018-May-17 04:00N 29°23' W 094°52'0 0.0
2018-May-17 03:30N 29°23' W 094°52'0 0.0
2018-May-17 03:01N 29°23' W 094°52'0 0.0
2018-May-17 02:30N 29°23' W 094°52'0 0.0
2018-May-17 02:00N 29°23' W 094°52'0 0.0
2018-May-17 01:31N 29°23' W 094°52'0 0.0
2018-May-17 01:01N 29°23' W 094°52'0 0.0
2018-May-17 00:31N 29°23' W 094°52'0 0.0
2018-May-17 00:01N 29°23' W 094°52'0 0.0
2018-May-16 23:31N 29°23' W 094°52'0 0.0
2018-May-16 23:00N 29°23' W 094°52'0 0.0
2018-May-16 22:30N 29°23' W 094°52'0 0.0
2018-May-16 22:01N 29°23' W 094°52'0 0.0
2018-May-16 21:31N 29°23' W 094°52'0 0.0
2018-May-16 21:01N 29°23' W 094°52'0 0.0
2018-May-16 20:30N 29°23' W 094°52'0 0.0
2018-May-16 20:00N 29°23' W 094°52'0 0.0
2018-May-16 19:30N 29°23' W 094°52'0 0.0
2018-May-16 19:01N 29°23' W 094°52'0 0.0
2018-May-16 18:29N 29°23' W 094°52'0 0.0
2018-May-16 18:01N 29°23' W 094°52'0 0.0
2018-May-16 17:31N 29°23' W 094°52'0 0.0
2018-May-16 17:00N 29°23' W 094°52'0 0.0
2018-May-16 16:30N 29°23' W 094°52'0 0.0
2018-May-16 15:59N 29°23' W 094°52'0 0.0
2018-May-16 15:30N 29°23' W 094°52'0 0.0
2018-May-16 15:00N 29°23' W 094°52'0 0.0
2018-May-16 14:30N 29°23' W 094°52'0 0.0
2018-May-16 14:00N 29°23' W 094°52'0 0.0
2018-May-16 13:30N 29°23' W 094°52'0 0.0
2018-May-16 13:01N 29°23' W 094°52'0 0.0
2018-May-16 12:31N 29°23' W 094°52'0 0.0
2018-May-16 12:01N 29°23' W 094°52'0 0.0
2018-May-16 11:31N 29°23' W 094°52'0 0.0
2018-May-16 11:00N 29°23' W 094°52'0 0.0
2018-May-16 10:30N 29°23' W 094°52'0 0.0
2018-May-16 10:00N 29°23' W 094°52'0 0.0
2018-May-16 09:30N 29°23' W 094°52'0 0.0
2018-May-16 09:01N 29°23' W 094°52'0 0.0
2018-May-16 08:31N 29°23' W 094°52'0 0.0
2018-May-16 08:00N 29°23' W 094°52'0 0.0
2018-May-16 07:31N 29°23' W 094°52'0 0.0
2018-May-16 07:00N 29°23' W 094°52'0 0.0
2018-May-16 06:30N 29°23' W 094°52'0 0.0
2018-May-16 06:01N 29°23' W 094°52'0 0.0
2018-May-16 05:31N 29°23' W 094°52'0 0.0
2018-May-16 05:00N 29°23' W 094°52'0 0.0
2018-May-16 04:30N 29°23' W 094°52'0 0.0
2018-May-16 04:00N 29°23' W 094°52'0 0.0
2018-May-16 03:31N 29°23' W 094°52'0 0.0
2018-May-16 03:00N 29°23' W 094°52'0 0.0
2018-May-16 02:30N 29°23' W 094°52'0 0.0
2018-May-16 02:00N 29°23' W 094°52'0 0.0
2018-May-16 01:31N 29°23' W 094°52'0 0.0
2018-May-16 01:00N 29°23' W 094°52'0 0.0
2018-May-16 00:31N 29°23' W 094°52'0 0.0
2018-May-16 00:00N 29°23' W 094°52'0 0.0
2018-May-15 23:17N 29°23' W 094°52'0 0.0
2018-May-15 19:29N 29°23' W 094°52'1 0.9
2018-May-15 17:52N 29°22' W 094°54'0 0.0
2018-May-15 17:30N 29°22' W 094°54'0 0.0
2018-May-15 17:00N 29°22' W 094°54'0 0.0
2018-May-15 16:31N 29°22' W 094°54'0 0.0
2018-May-15 16:00N 29°22' W 094°54'0 0.0
2018-May-15 15:30N 29°22' W 094°54'0 0.0
2018-May-15 15:01N 29°22' W 094°54'0 0.0
2018-May-15 14:31N 29°22' W 094°54'0 0.0
2018-May-15 14:01N 29°22' W 094°54'0 0.2
2018-May-15 13:31N 29°22' W 094°53'1 2.7
2018-May-15 13:00N 29°23' W 094°52'0 0.0
2018-May-15 12:31N 29°23' W 094°52'0 0.0
2018-May-15 12:00N 29°23' W 094°52'1 1.1
2018-May-15 11:30N 29°23' W 094°53'1 2.1
2018-May-15 11:00N 29°22' W 094°53'0 0.0
2018-May-15 10:30N 29°22' W 094°53'0 0.0
2018-May-15 10:00N 29°22' W 094°53'0 0.0
2018-May-15 09:30N 29°22' W 094°53'0 0.0
2018-May-15 08:59N 29°22' W 094°53'0 0.0
2018-May-15 08:29N 29°22' W 094°53'0 0.0
2018-May-15 08:00N 29°22' W 094°53'0 0.0
2018-May-15 07:31N 29°22' W 094°53'0 0.0
2018-May-15 06:51N 29°22' W 094°53'0 0.0
2018-May-15 06:26N 29°22' W 094°53'0 0.0
2018-May-15 05:59N 29°22' W 094°53'0 0.0
2018-May-15 05:30N 29°22' W 094°53'0 0.0
2018-May-15 05:01N 29°22' W 094°53'0 0.0
2018-May-15 04:29N 29°22' W 094°53'0 0.0
2018-May-15 04:00N 29°22' W 094°53'0 0.0
2018-May-15 03:30N 29°22' W 094°53'0 0.0
2018-May-15 03:00N 29°22' W 094°53'0 0.0
2018-May-15 02:30N 29°22' W 094°53'0 0.0
2018-May-15 01:58N 29°22' W 094°53'0 0.0
2018-May-15 01:30N 29°22' W 094°53'0 0.0
2018-May-15 01:00N 29°22' W 094°53'0 0.0
2018-May-15 00:24N 29°22' W 094°53'0 0.0
2018-May-15 00:00N 29°22' W 094°53'0 0.0
2018-May-14 23:24N 29°22' W 094°53'0 0.0
2018-May-14 22:39N 29°22' W 094°53'0 0.0
2018-May-14 22:16N 29°22' W 094°53'0 0.0
2018-May-14 22:00N 29°22' W 094°53'0 0.0
2018-May-14 21:30N 29°22' W 094°53'0 0.0
2018-May-14 19:10N 29°22' W 094°53'0 0.1
2018-May-14 19:00N 29°22' W 094°53'0 0.0
2018-May-14 18:27N 29°22' W 094°53'0 0.0
2018-May-14 15:34N 29°22' W 094°53'0 0.0
2018-May-14 15:10N 29°22' W 094°53'0 0.0
2018-May-14 14:52N 29°22' W 094°53'0 0.0
2018-May-14 13:11N 29°22' W 094°53'0 0.0
2018-May-14 12:53N 29°22' W 094°53'0 0.0
2018-May-14 12:30N 29°22' W 094°53'0 0.0
2018-May-14 11:55N 29°22' W 094°53'0 0.0
2018-May-14 11:30N 29°22' W 094°53'0 0.0
2018-May-14 11:00N 29°22' W 094°53'0 0.0
2018-May-14 10:30N 29°22' W 094°53'0 0.0
2018-May-14 10:01N 29°22' W 094°53'0 0.0
2018-May-14 09:27N 29°22' W 094°53'0 0.0
2018-May-14 09:00N 29°22' W 094°53'0 0.0
2018-May-14 08:30N 29°22' W 094°53'0 0.0
2018-May-14 08:00N 29°22' W 094°53'1 1.8
2018-May-14 07:23N 29°23' W 094°52'0 0.2
2018-May-14 07:00N 29°23' W 094°52'0 0.1
2018-May-14 06:30N 29°23' W 094°52'0 0.2
2018-May-14 05:57N 29°23' W 094°52'0 0.0
2018-May-14 05:27N 29°23' W 094°52'0 0.0
2018-May-14 04:07N 29°23' W 094°52'0 0.0
2018-May-14 03:59N 29°23' W 094°52'0 0.0
2018-May-14 03:11N 29°23' W 094°52'0 0.0
2018-May-14 02:44N 29°23' W 094°52'0 0.0
2018-May-14 02:29N 29°23' W 094°52'0 0.0
2018-May-14 01:56N 29°23' W 094°52'0 0.0
2018-May-14 01:30N 29°23' W 094°52'0 0.0
2018-May-14 00:58N 29°23' W 094°52'0 0.0
2018-May-14 00:26N 29°23' W 094°52'0 0.0
2018-May-13 23:58N 29°23' W 094°52'0 0.0
2018-May-13 23:28N 29°23' W 094°52'0 0.0
2018-May-13 22:57N 29°23' W 094°52'0 0.0
2018-May-13 22:30N 29°23' W 094°52'0 0.0
2018-May-13 22:00N 29°23' W 094°52'0 0.0
2018-May-13 21:30N 29°23' W 094°52'1 2.1
2018-May-13 21:00N 29°22' W 094°53'0 0.6
2018-May-13 20:30N 29°22' W 094°54'0 0.0
2018-May-13 20:01N 29°22' W 094°54'0 0.0
2018-May-13 19:31N 29°22' W 094°54'0 0.0
2018-May-13 19:00N 29°22' W 094°54'0 0.0
2018-May-13 18:30N 29°22' W 094°54'0 0.0
2018-May-13 18:00N 29°22' W 094°54'0 0.0
2018-May-13 17:30N 29°22' W 094°54'1 2.3
2018-May-13 16:56N 29°23' W 094°52'0 0.0
2018-May-13 16:24N 29°23' W 094°52'0 0.0
2018-May-13 15:36N 29°23' W 094°52'0 0.0
2018-May-13 15:29N 29°23' W 094°52'0 0.0
2018-May-13 15:00N 29°23' W 094°52'0 0.0
2018-May-13 14:11N 29°23' W 094°52'0 0.0
2018-May-13 13:56N 29°23' W 094°52'0 0.0
2018-May-13 13:28N 29°23' W 094°52'0 0.0
2018-May-13 12:59N 29°23' W 094°52'0 0.0
2018-May-13 12:30N 29°23' W 094°52'0 0.0
2018-May-13 11:55N 29°23' W 094°52'0 0.0
2018-May-13 11:29N 29°23' W 094°52'0 0.0
2018-May-13 10:56N 29°23' W 094°52'0 0.0
2018-May-13 10:29N 29°23' W 094°52'0 0.0
2018-May-13 10:00N 29°23' W 094°52'0 0.0
2018-May-13 08:24N 29°23' W 094°52'0 0.0
2018-May-13 07:58N 29°23' W 094°52'0 0.0
2018-May-13 06:26N 29°23' W 094°52'0 0.0
2018-May-13 05:31N 29°23' W 094°52'0 0.0
2018-May-13 05:30N 29°23' W 094°52'0 0.0
2018-May-13 04:50N 29°23' W 094°52'0 0.0
2018-May-13 04:18N 29°23' W 094°52'0 0.0
2018-May-13 03:59N 29°23' W 094°52'0 0.0
2018-May-13 03:28N 29°23' W 094°52'0 0.0
2018-May-13 02:59N 29°23' W 094°52'0 0.0
2018-May-13 01:49N 29°23' W 094°52'0 0.0
2018-May-13 01:29N 29°23' W 094°52'0 0.0
2018-May-13 00:29N 29°23' W 094°52'0 0.0
2018-May-12 23:55N 29°23' W 094°52'0 0.0
2018-May-12 22:36N 29°23' W 094°52'0 0.0
2018-May-12 21:46N 29°23' W 094°52'0 0.0
2018-May-12 21:23N 29°23' W 094°52'0 0.0
2018-May-12 20:22N 29°23' W 094°52'0 0.0
2018-May-12 19:59N 29°23' W 094°52'0 0.0
2018-May-12 19:30N 29°23' W 094°52'0 0.0
2018-May-12 18:48N 29°23' W 094°52'0 0.0
2018-May-12 18:15N 29°23' W 094°52'  
Track history (hours):
 
Tides and Currents Weather Stations Pressure Air Temp Water Temp Dewpoint Dewpoint Depression Visibility Wind Speed Wind Dir Waves Ship Positions

San Roberto

Owner: Buffalo Marine Service, Inc., Houston, TX. More information available from US FCC via Universal Licensing System and Coast Guard Vessel Documentation Center.

Last reported at 2018-May-22 17:58 UTC. Time now 2018-May-22 18:01 UTC.
Position N 29°23' W 094°52'.

Length 29 m.

Type: Towing. MMSI: 367746950.

Date/timePositionNaut miles runAvg speedWind from/ knotsBaromVisibWave heightAir tempDewpointWater temp
2018-May-22 17:58N 29°23' W 094°52'0 0.0
2018-May-22 17:29N 29°23' W 094°52'0 0.0
2018-May-22 16:59N 29°23' W 094°52'0 0.0
2018-May-22 16:29N 29°23' W 094°52'0 0.0
2018-May-22 15:59N 29°23' W 094°52'1 2.4
2018-May-22 15:30N 29°22' W 094°53'0 0.4
2018-May-22 15:01N 29°22' W 094°54'0 0.0
2018-May-22 14:31N 29°22' W 094°54'0 0.0
2018-May-22 14:01N 29°22' W 094°54'0 0.0
2018-May-22 13:31N 29°22' W 094°54'0 0.0
2018-May-22 13:01N 29°22' W 094°54'0 0.0
2018-May-22 12:30N 29°22' W 094°54'0 0.0
2018-May-22 12:01N 29°22' W 094°54'0 0.0
2018-May-22 11:30N 29°22' W 094°54'0 0.0
2018-May-22 11:01N 29°22' W 094°54'0 0.0
2018-May-22 10:31N 29°22' W 094°54'0 0.0
2018-May-22 10:00N 29°22' W 094°54'0 0.0
2018-May-22 09:31N 29°22' W 094°54'0 0.0
2018-May-22 09:01N 29°22' W 094°54'0 0.0
2018-May-22 08:31N 29°22' W 094°54'0 0.0
2018-May-22 08:00N 29°22' W 094°54'0 0.0
2018-May-22 07:31N 29°22' W 094°54'0 0.0
2018-May-22 07:01N 29°22' W 094°54'0 0.0
2018-May-22 06:31N 29°22' W 094°54'0 0.0
2018-May-22 06:01N 29°22' W 094°54'0 0.0
2018-May-22 05:30N 29°22' W 094°54'0 0.0
2018-May-22 05:01N 29°22' W 094°54'0 0.1
2018-May-22 04:30N 29°22' W 094°54'0 0.0
2018-May-22 04:00N 29°22' W 094°54'0 0.0
2018-May-22 03:14N 29°22' W 094°54'0 0.0
2018-May-21 22:30N 29°22' W 094°54'0 0.0
2018-May-21 22:00N 29°22' W 094°54'0 0.0
2018-May-21 21:31N 29°22' W 094°54'0 0.0
2018-May-21 21:01N 29°22' W 094°54'1 2.0
2018-May-21 20:31N 29°23' W 094°53'1 1.7
2018-May-21 20:00N 29°23' W 094°52'0 0.3
2018-May-21 19:31N 29°23' W 094°52'3 6.1
2018-May-21 19:01N 29°22' W 094°49'3 6.1
2018-May-21 18:31N 29°19' W 094°47'2 3.2
2018-May-21 18:00N 29°19' W 094°49'0 0.0
2018-May-21 17:31N 29°19' W 094°49'0 0.0
2018-May-21 17:01N 29°19' W 094°49'0 0.4
2018-May-21 16:30N 29°19' W 094°49'3 5.1
2018-May-21 16:00N 29°21' W 094°47'3 6.5
2018-May-21 15:31N 29°22' W 094°51'1 2.7
2018-May-21 14:59N 29°23' W 094°52'0 0.0
2018-May-21 14:28N 29°23' W 094°52'0 0.0
2018-May-21 13:14N 29°23' W 094°52'0 0.0
2018-May-21 12:58N 29°23' W 094°52'0 0.0
2018-May-21 12:21N 29°23' W 094°52'0 0.0
2018-May-21 11:59N 29°23' W 094°52'0 0.0
2018-May-21 11:28N 29°23' W 094°52'0 0.0
2018-May-21 11:01N 29°23' W 094°52'0 0.0
2018-May-21 10:30N 29°23' W 094°52'0 0.0
2018-May-21 09:59N 29°23' W 094°52'0 0.0
2018-May-21 09:27N 29°23' W 094°52'0 0.4
2018-May-21 09:01N 29°23' W 094°52'3 6.6
2018-May-21 08:31N 29°22' W 094°48'5 8.7
2018-May-21 07:57N 29°26' W 094°50'4 8.7
2018-May-21 07:30N 29°30' W 094°52'4 8.4
2018-May-21 07:01N 29°33' W 094°55'4 8.3
2018-May-21 06:31N 29°37' W 094°57'4 8.6
2018-May-21 06:01N 29°41' W 094°59'4 7.5
2018-May-21 05:30N 29°44' W 095°02'4 6.5
2018-May-21 04:56N 29°45' W 095°06'1 1.6
2018-May-21 04:30N 29°45' W 095°06'0 0.1
2018-May-21 03:55N 29°45' W 095°06'0 0.0
2018-May-21 03:24N 29°45' W 095°06'0 0.0
2018-May-21 03:00N 29°45' W 095°06'0 0.0
2018-May-21 01:57N 29°45' W 095°06'0 0.0
2018-May-21 00:43N 29°45' W 095°06'0 0.0
2018-May-20 20:28N 29°45' W 095°06'0 0.0
2018-May-20 06:17N 29°45' W 095°06'1 2.3
2018-May-20 05:59N 29°45' W 095°06'2 2.8
2018-May-20 05:24N 29°45' W 095°04'2 5.1
2018-May-20 04:57N 29°44' W 095°02'2 5.0
2018-May-20 04:30N 29°42' W 094°60'3 5.2
2018-May-20 04:01N 29°40' W 094°58'3 5.2
2018-May-20 03:30N 29°37' W 094°57'3 5.5
2018-May-20 03:01N 29°35' W 094°56'3 5.8
2018-May-20 02:31N 29°32' W 094°54'3 5.6
2018-May-20 02:00N 29°30' W 094°52'3 5.7
2018-May-20 01:29N 29°27' W 094°51'3 5.4
2018-May-20 00:57N 29°25' W 094°49'2 5.4
2018-May-20 00:30N 29°23' W 094°48'2 3.5
2018-May-19 23:58N 29°22' W 094°51'1 2.9
2018-May-19 23:31N 29°23' W 094°52'2 2.7
2018-May-19 22:53N 29°22' W 094°50'3 7.3
2018-May-19 22:29N 29°21' W 094°47'2 0.6
2018-May-19 18:57N 29°19' W 094°47'0 0.0
2018-May-19 18:26N 29°19' W 094°47'0 0.0
2018-May-19 17:37N 29°19' W 094°47'0 0.0
2018-May-19 17:30N 29°19' W 094°47'0 0.0
2018-May-19 17:00N 29°19' W 094°47'0 0.0
2018-May-19 16:29N 29°19' W 094°47'0 0.0
2018-May-19 15:59N 29°19' W 094°47'0 0.0
2018-May-19 15:30N 29°19' W 094°47'0 0.0
2018-May-19 15:00N 29°19' W 094°47'0 0.0
2018-May-19 14:29N 29°19' W 094°47'0 0.0
2018-May-19 13:58N 29°19' W 094°47'0 0.0
2018-May-19 13:29N 29°19' W 094°47'0 0.0
2018-May-19 12:58N 29°19' W 094°47'2 4.5
2018-May-19 12:29N 29°21' W 094°47'4 8.2
2018-May-19 12:01N 29°23' W 094°51'2 3.3
2018-May-19 11:31N 29°22' W 094°53'1 2.1
2018-May-19 11:00N 29°23' W 094°52'0 0.0
2018-May-19 10:30N 29°23' W 094°52'0 0.0
2018-May-19 10:01N 29°23' W 094°52'0 0.0
2018-May-19 09:29N 29°23' W 094°52'0 0.0
2018-May-19 09:00N 29°23' W 094°52'0 0.0
2018-May-19 08:30N 29°23' W 094°52'0 0.0
2018-May-19 08:01N 29°23' W 094°52'0 0.0
2018-May-19 07:31N 29°23' W 094°52'0 0.0
2018-May-19 07:00N 29°23' W 094°52'0 0.0
2018-May-19 06:31N 29°23' W 094°52'0 0.0
2018-May-19 06:01N 29°23' W 094°52'0 0.0
2018-May-19 05:30N 29°23' W 094°52'0 0.0
2018-May-19 05:01N 29°23' W 094°52'0 0.0
2018-May-19 04:30N 29°23' W 094°52'0 0.0
2018-May-19 03:59N 29°23' W 094°52'0 0.0
2018-May-19 03:28N 29°23' W 094°52'0 0.0
2018-May-19 03:00N 29°23' W 094°52'0 0.0
2018-May-19 02:30N 29°23' W 094°52'0 0.0
2018-May-19 02:00N 29°23' W 094°52'0 0.0
2018-May-19 01:30N 29°23' W 094°52'0 0.0
2018-May-19 01:01N 29°23' W 094°52'0 0.0
2018-May-19 00:31N 29°23' W 094°52'0 0.0
2018-May-18 23:59N 29°23' W 094°52'0 0.0
2018-May-18 23:30N 29°23' W 094°52'0 0.0
2018-May-18 23:00N 29°23' W 094°52'0 0.0
2018-May-18 22:30N 29°23' W 094°52'0 0.0
2018-May-18 22:00N 29°23' W 094°52'0 0.0
2018-May-18 21:30N 29°23' W 094°52'0 0.0
2018-May-18 21:01N 29°23' W 094°52'0 0.0
2018-May-18 20:31N 29°23' W 094°52'0 0.0
2018-May-18 20:01N 29°23' W 094°52'0 0.0
2018-May-18 19:30N 29°23' W 094°52'0 0.0
2018-May-18 19:01N 29°23' W 094°52'0 0.0
2018-May-18 18:30N 29°23' W 094°52'0 0.0
2018-May-18 18:01N 29°23' W 094°52'0 0.0
2018-May-18 17:31N 29°23' W 094°52'0 0.0
2018-May-18 17:00N 29°23' W 094°52'0 0.0
2018-May-18 16:31N 29°23' W 094°52'0 0.0
2018-May-18 16:00N 29°23' W 094°52'0 0.0
2018-May-18 15:31N 29°23' W 094°52'0 0.0
2018-May-18 14:59N 29°23' W 094°52'0 0.0
2018-May-18 14:30N 29°23' W 094°52'0 0.0
2018-May-18 13:33N 29°23' W 094°52'0 0.0
2018-May-18 13:29N 29°23' W 094°52'0 0.0
2018-May-18 12:54N 29°23' W 094°52'0 0.0
2018-May-18 12:30N 29°23' W 094°52'0 0.0
2018-May-18 12:00N 29°23' W 094°52'0 0.0
2018-May-18 11:30N 29°23' W 094°52'0 0.0
2018-May-18 11:01N 29°23' W 094°52'0 0.0
2018-May-18 10:30N 29°23' W 094°52'0 0.0
2018-May-18 10:01N 29°23' W 094°52'1 2.8
2018-May-18 09:30N 29°22' W 094°53'1 2.8
2018-May-18 09:00N 29°23' W 094°52'0 0.1
2018-May-18 08:31N 29°23' W 094°52'0 0.0
2018-May-18 08:01N 29°23' W 094°52'0 0.0
2018-May-18 07:31N 29°23' W 094°52'1 2.8
2018-May-18 07:00N 29°22' W 094°54'0 0.0
2018-May-18 06:31N 29°22' W 094°54'0 0.0
2018-May-18 06:01N 29°22' W 094°54'0 0.0
2018-May-18 05:31N 29°22' W 094°54'0 0.0
2018-May-18 05:01N 29°22' W 094°54'0 0.0
2018-May-18 04:30N 29°22' W 094°54'0 0.0
2018-May-18 04:01N 29°22' W 094°54'0 0.0
2018-May-18 03:30N 29°22' W 094°54'0 0.0
2018-May-18 03:00N 29°22' W 094°54'0 0.0
2018-May-18 02:31N 29°22' W 094°54'0 0.0
2018-May-18 02:00N 29°22' W 094°54'0 0.0
2018-May-18 01:30N 29°22' W 094°54'0 0.0
2018-May-18 01:00N 29°22' W 094°54'0 0.0
2018-May-18 00:31N 29°22' W 094°54'0 0.0
2018-May-18 00:01N 29°22' W 094°54'0 0.0
2018-May-17 23:30N 29°22' W 094°54'0 0.0
2018-May-17 23:01N 29°22' W 094°54'0 0.0
2018-May-17 22:30N 29°22' W 094°54'0 0.0
2018-May-17 22:00N 29°22' W 094°54'0 0.0
2018-May-17 21:29N 29°22' W 094°54'0 0.0
2018-May-17 21:00N 29°22' W 094°54'1 2.9
2018-May-17 20:30N 29°23' W 094°52'0 0.0
2018-May-17 19:59N 29°23' W 094°52'0 0.0
2018-May-17 19:27N 29°23' W 094°52'0 0.0
2018-May-17 19:00N 29°23' W 094°52'0 0.0
2018-May-17 18:30N 29°23' W 094°52'0 0.0
2018-May-17 18:00N 29°23' W 094°52'0 0.0
2018-May-17 17:31N 29°23' W 094°52'1 2.8
2018-May-17 17:00N 29°22' W 094°53'1 2.8
2018-May-17 16:30N 29°23' W 094°52'0 0.0
2018-May-17 16:00N 29°23' W 094°52'0 0.0
2018-May-17 15:30N 29°23' W 094°52'1 2.7
2018-May-17 15:00N 29°22' W 094°53'1 2.7
2018-May-17 14:30N 29°23' W 094°52'0 0.0
2018-May-17 14:00N 29°23' W 094°52'0 0.0
2018-May-17 13:31N 29°23' W 094°52'0 0.0
2018-May-17 13:00N 29°23' W 094°52'0 0.0
2018-May-17 12:30N 29°23' W 094°52'0 0.0
2018-May-17 12:00N 29°23' W 094°52'0 0.0
2018-May-17 11:29N 29°23' W 094°52'0 0.0
2018-May-17 11:00N 29°23' W 094°52'0 0.0
2018-May-17 10:30N 29°23' W 094°52'0 0.0
2018-May-17 10:00N 29°23' W 094°52'0 0.0
2018-May-17 09:31N 29°23' W 094°52'0 0.0
2018-May-17 09:00N 29°23' W 094°52'0 0.0
2018-May-17 08:29N 29°23' W 094°52'0 0.0
2018-May-17 08:00N 29°23' W 094°52'0 0.0
2018-May-17 07:30N 29°23' W 094°52'0 0.0
2018-May-17 07:00N 29°23' W 094°52'0 0.0
2018-May-17 06:30N 29°23' W 094°52'0 0.0
2018-May-17 06:00N 29°23' W 094°52'0 0.0
2018-May-17 05:31N 29°23' W 094°52'0 0.0
2018-May-17 05:01N 29°23' W 094°52'0 0.0
2018-May-17 04:30N 29°23' W 094°52'0 0.0
2018-May-17 04:00N 29°23' W 094°52'0 0.0
2018-May-17 03:30N 29°23' W 094°52'0 0.0
2018-May-17 03:01N 29°23' W 094°52'0 0.0
2018-May-17 02:30N 29°23' W 094°52'0 0.0
2018-May-17 02:00N 29°23' W 094°52'0 0.0
2018-May-17 01:31N 29°23' W 094°52'0 0.0
2018-May-17 01:01N 29°23' W 094°52'0 0.0
2018-May-17 00:31N 29°23' W 094°52'0 0.0
2018-May-17 00:01N 29°23' W 094°52'0 0.0
2018-May-16 23:31N 29°23' W 094°52'0 0.0
2018-May-16 23:00N 29°23' W 094°52'0 0.0
2018-May-16 22:30N 29°23' W 094°52'0 0.0
2018-May-16 22:01N 29°23' W 094°52'0 0.0
2018-May-16 21:31N 29°23' W 094°52'0 0.0
2018-May-16 21:01N 29°23' W 094°52'0 0.0
2018-May-16 20:30N 29°23' W 094°52'0 0.0
2018-May-16 20:00N 29°23' W 094°52'0 0.0
2018-May-16 19:30N 29°23' W 094°52'0 0.0
2018-May-16 19:01N 29°23' W 094°52'0 0.0
2018-May-16 18:29N 29°23' W 094°52'0 0.0
2018-May-16 18:01N 29°23' W 094°52'0 0.0
2018-May-16 17:31N 29°23' W 094°52'0 0.0
2018-May-16 17:00N 29°23' W 094°52'0 0.0
2018-May-16 16:30N 29°23' W 094°52'0 0.0
2018-May-16 15:59N 29°23' W 094°52'0 0.0
2018-May-16 15:30N 29°23' W 094°52'0 0.0
2018-May-16 15:00N 29°23' W 094°52'0 0.0
2018-May-16 14:30N 29°23' W 094°52'0 0.0
2018-May-16 14:00N 29°23' W 094°52'0 0.0
2018-May-16 13:30N 29°23' W 094°52'0 0.0
2018-May-16 13:01N 29°23' W 094°52'0 0.0
2018-May-16 12:31N 29°23' W 094°52'0 0.0
2018-May-16 12:01N 29°23' W 094°52'0 0.0
2018-May-16 11:31N 29°23' W 094°52'0 0.0
2018-May-16 11:00N 29°23' W 094°52'0 0.0
2018-May-16 10:30N 29°23' W 094°52'0 0.0
2018-May-16 10:00N 29°23' W 094°52'0 0.0
2018-May-16 09:30N 29°23' W 094°52'0 0.0
2018-May-16 09:01N 29°23' W 094°52'0 0.0
2018-May-16 08:31N 29°23' W 094°52'0 0.0
2018-May-16 08:00N 29°23' W 094°52'0 0.0
2018-May-16 07:31N 29°23' W 094°52'0 0.0
2018-May-16 07:00N 29°23' W 094°52'0 0.0
2018-May-16 06:30N 29°23' W 094°52'0 0.0
2018-May-16 06:01N 29°23' W 094°52'0 0.0
2018-May-16 05:31N 29°23' W 094°52'0 0.0
2018-May-16 05:00N 29°23' W 094°52'0 0.0
2018-May-16 04:30N 29°23' W 094°52'0 0.0
2018-May-16 04:00N 29°23' W 094°52'0 0.0
2018-May-16 03:31N 29°23' W 094°52'0 0.0
2018-May-16 03:00N 29°23' W 094°52'0 0.0
2018-May-16 02:30N 29°23' W 094°52'0 0.0
2018-May-16 02:00N 29°23' W 094°52'0 0.0
2018-May-16 01:31N 29°23' W 094°52'0 0.0
2018-May-16 01:00N 29°23' W 094°52'0 0.0
2018-May-16 00:31N 29°23' W 094°52'0 0.0
2018-May-16 00:00N 29°23' W 094°52'0 0.0
2018-May-15 23:17N 29°23' W 094°52'0 0.0
2018-May-15 19:29N 29°23' W 094°52'1 0.9
2018-May-15 17:52N 29°22' W 094°54'0 0.0
2018-May-15 17:30N 29°22' W 094°54'0 0.0
2018-May-15 17:00N 29°22' W 094°54'0 0.0
2018-May-15 16:31N 29°22' W 094°54'0 0.0
2018-May-15 16:00N 29°22' W 094°54'0 0.0
2018-May-15 15:30N 29°22' W 094°54'0 0.0
2018-May-15 15:01N 29°22' W 094°54'0 0.0
2018-May-15 14:31N 29°22' W 094°54'0 0.0
2018-May-15 14:01N 29°22' W 094°54'0 0.2
2018-May-15 13:31N 29°22' W 094°53'1 2.7
2018-May-15 13:00N 29°23' W 094°52'0 0.0
2018-May-15 12:31N 29°23' W 094°52'0 0.0
2018-May-15 12:00N 29°23' W 094°52'1 1.1
2018-May-15 11:30N 29°23' W 094°53'1 2.1
2018-May-15 11:00N 29°22' W 094°53'0 0.0
2018-May-15 10:30N 29°22' W 094°53'0 0.0
2018-May-15 10:00N 29°22' W 094°53'0 0.0
2018-May-15 09:30N 29°22' W 094°53'0 0.0
2018-May-15 08:59N 29°22' W 094°53'0 0.0
2018-May-15 08:29N 29°22' W 094°53'0 0.0
2018-May-15 08:00N 29°22' W 094°53'0 0.0
2018-May-15 07:31N 29°22' W 094°53'0 0.0
2018-May-15 06:51N 29°22' W 094°53'0 0.0
2018-May-15 06:26N 29°22' W 094°53'0 0.0
2018-May-15 05:59N 29°22' W 094°53'0 0.0
2018-May-15 05:30N 29°22' W 094°53'0 0.0
2018-May-15 05:01N 29°22' W 094°53'0 0.0
2018-May-15 04:29N 29°22' W 094°53'0 0.0
2018-May-15 04:00N 29°22' W 094°53'0 0.0
2018-May-15 03:30N 29°22' W 094°53'0 0.0
2018-May-15 03:00N 29°22' W 094°53'0 0.0
2018-May-15 02:30N 29°22' W 094°53'0 0.0
2018-May-15 01:58N 29°22' W 094°53'0 0.0
2018-May-15 01:30N 29°22' W 094°53'0 0.0
2018-May-15 01:00N 29°22' W 094°53'0 0.0
2018-May-15 00:24N 29°22' W 094°53'0 0.0
2018-May-15 00:00N 29°22' W 094°53'0 0.0
2018-May-14 23:24N 29°22' W 094°53'0 0.0
2018-May-14 22:39N 29°22' W 094°53'0 0.0
2018-May-14 22:16N 29°22' W 094°53'0 0.0
2018-May-14 22:00N 29°22' W 094°53'0 0.0
2018-May-14 21:30N 29°22' W 094°53'0 0.0
2018-May-14 19:10N 29°22' W 094°53'0 0.1
2018-May-14 19:00N 29°22' W 094°53'0 0.0
2018-May-14 18:27N 29°22' W 094°53'0 0.0
2018-May-14 15:34N 29°22' W 094°53'0 0.0
2018-May-14 15:10N 29°22' W 094°53'0 0.0
2018-May-14 14:52N 29°22' W 094°53'0 0.0
2018-May-14 13:11N 29°22' W 094°53'0 0.0
2018-May-14 12:53N 29°22' W 094°53'0 0.0
2018-May-14 12:30N 29°22' W 094°53'0 0.0
2018-May-14 11:55N 29°22' W 094°53'0 0.0
2018-May-14 11:30N 29°22' W 094°53'0 0.0
2018-May-14 11:00N 29°22' W 094°53'0 0.0
2018-May-14 10:30N 29°22' W 094°53'0 0.0
2018-May-14 10:01N 29°22' W 094°53'0 0.0
2018-May-14 09:27N 29°22' W 094°53'0 0.0
2018-May-14 09:00N 29°22' W 094°53'0 0.0
2018-May-14 08:30N 29°22' W 094°53'0 0.0
2018-May-14 08:00N 29°22' W 094°53'1 1.8
2018-May-14 07:23N 29°23' W 094°52'0 0.2
2018-May-14 07:00N 29°23' W 094°52'0 0.1
2018-May-14 06:30N 29°23' W 094°52'0 0.2
2018-May-14 05:57N 29°23' W 094°52'0 0.0
2018-May-14 05:27N 29°23' W 094°52'0 0.0
2018-May-14 04:07N 29°23' W 094°52'0 0.0
2018-May-14 03:59N 29°23' W 094°52'0 0.0
2018-May-14 03:11N 29°23' W 094°52'0 0.0
2018-May-14 02:44N 29°23' W 094°52'0 0.0
2018-May-14 02:29N 29°23' W 094°52'0 0.0
2018-May-14 01:56N 29°23' W 094°52'0 0.0
2018-May-14 01:30N 29°23' W 094°52'0 0.0
2018-May-14 00:58N 29°23' W 094°52'0 0.0
2018-May-14 00:26N 29°23' W 094°52'0 0.0
2018-May-13 23:58N 29°23' W 094°52'0 0.0
2018-May-13 23:28N 29°23' W 094°52'0 0.0
2018-May-13 22:57N 29°23' W 094°52'0 0.0
2018-May-13 22:30N 29°23' W 094°52'0 0.0
2018-May-13 22:00N 29°23' W 094°52'0 0.0
2018-May-13 21:30N 29°23' W 094°52'1 2.1
2018-May-13 21:00N 29°22' W 094°53'0 0.6
2018-May-13 20:30N 29°22' W 094°54'0 0.0
2018-May-13 20:01N 29°22' W 094°54'0 0.0
2018-May-13 19:31N 29°22' W 094°54'0 0.0
2018-May-13 19:00N 29°22' W 094°54'0 0.0
2018-May-13 18:30N 29°22' W 094°54'0 0.0
2018-May-13 18:00N 29°22' W 094°54'0 0.0
2018-May-13 17:30N 29°22' W 094°54'1 2.3
2018-May-13 16:56N 29°23' W 094°52'0 0.0
2018-May-13 16:24N 29°23' W 094°52'0 0.0
2018-May-13 15:36N 29°23' W 094°52'0 0.0
2018-May-13 15:29N 29°23' W 094°52'0 0.0
2018-May-13 15:00N 29°23' W 094°52'0 0.0
2018-May-13 14:11N 29°23' W 094°52'0 0.0
2018-May-13 13:56N 29°23' W 094°52'0 0.0
2018-May-13 13:28N 29°23' W 094°52'0 0.0
2018-May-13 12:59N 29°23' W 094°52'0 0.0
2018-May-13 12:30N 29°23' W 094°52'0 0.0
2018-May-13 11:55N 29°23' W 094°52'0 0.0
2018-May-13 11:29N 29°23' W 094°52'0 0.0
2018-May-13 10:56N 29°23' W 094°52'0 0.0
2018-May-13 10:29N 29°23' W 094°52'0 0.0
2018-May-13 10:00N 29°23' W 094°52'0 0.0
2018-May-13 08:24N 29°23' W 094°52'0 0.0
2018-May-13 07:58N 29°23' W 094°52'0 0.0
2018-May-13 06:26N 29°23' W 094°52'0 0.0
2018-May-13 05:31N 29°23' W 094°52'0 0.0
2018-May-13 05:30N 29°23' W 094°52'0 0.0
2018-May-13 04:50N 29°23' W 094°52'0 0.0
2018-May-13 04:18N 29°23' W 094°52'0 0.0
2018-May-13 03:59N 29°23' W 094°52'0 0.0
2018-May-13 03:28N 29°23' W 094°52'0 0.0
2018-May-13 02:59N 29°23' W 094°52'0 0.0
2018-May-13 01:49N 29°23' W 094°52'0 0.0
2018-May-13 01:29N 29°23' W 094°52'0 0.0
2018-May-13 00:29N 29°23' W 094°52'0 0.0
2018-May-12 23:55N 29°23' W 094°52'0 0.0
2018-May-12 22:36N 29°23' W 094°52'0 0.0
2018-May-12 21:46N 29°23' W 094°52'0 0.0
2018-May-12 21:23N 29°23' W 094°52'0 0.0
2018-May-12 20:22N 29°23' W 094°52'0 0.0
2018-May-12 19:59N 29°23' W 094°52'0 0.0
2018-May-12 19:30N 29°23' W 094°52'0 0.0
2018-May-12 18:48N 29°23' W 094°52'0 0.0
2018-May-12 18:15N 29°23' W 094°52'  

Dump ship's entire track history